ENTCENSB

Guest
Details From ENTC - Tromso Langnes
To ENSB - Svalbard Longyear
Flight Number -
Tags decoded
Created
Modified
Stats Distance 518 nm / 958 km
Max Altitude 0 ft / 0 m
Waypoints 3
Social Downloads 2
Likes 0
Share VATSIM

Download

Looking for another format? Having issues loading an existing format? Contact us
Advertisement - Login to hide

Notes

Requested: ENTC LOMVI P853 AMPIS ENSB Unmatched points: P853 AMPIS

Route

ENTC LOMVI ENSB

ID Type Via Altitude Latitude Longitude Leg Dist Tot Dist Heading (true) Name
O ENTC APT - 0 ft / 0 m 69.68287˚ 18.91936˚ - 0 nm - Tromso Langnes
LOMVI FIX - 0 ft / 0 m 70.08340˚ 19.00052˚ 24 nm 24 nm 4° / 4° -
O ENSB APT - 0 ft / 0 m 78.24604˚ 15.46720˚ 493 nm 517 nm 355° / 352° Svalbard Longyear

Altitude Profile

Advertisement - Login to hide

Weather


0- 5 10 15 20 25 30 35+ Temperature / ° C

Clouds and Precipitation
Forecast for 2018-05-26 18:00 UTC. Updated 5 hours ago

Ground ~20,000 ft ~40,000 ft Winds

ENTC

Details ICAO ENTC (TOS)
Name Tromso Langnes
Region Norway
Timezone Europe/Oslo (UTC+2.0)
Stats Elevation 31 ft / 9 m (AMSL)
Location 69.682866° 18.919363°
Runways 1
Magnetic Variation 8.900° E

METAR

ENTC 262150Z VRB03KT 9999 VCSH BKN025 05/01 Q1030 RMK WIND 2600FT 28013G27KT

Decode

TAF

TAF ENTC 261700Z 2618/2718 26018KT 9999 -SHRA FEW020 BKN030 BECMG 2620/2622 22008KT TEMPO 2710/2715 BKN014

Decode

Departure Runways

ID Width Length Bearing (true) Bearing (mag) Surface Threshold Offset Overrun Length
01 141 ft / 43 m 7,740 ft / 2,359 m 12.19° 3.29° Asphalt 0 ft / 0 m 289 ft / 88 m
19 141 ft / 43 m 7,740 ft / 2,359 m 192.21° 183.31° Asphalt 1,227 ft / 374 m 482 ft / 147 m

ENSB

Details ICAO ENSB (LYR)
Name Svalbard Longyear
Region Norway
Timezone Arctic/Longyearbyen (UTC+2.0)
Stats Elevation 88 ft / 27 m (AMSL)
Location 78.246037° 15.467196°
Runways 1
Magnetic Variation 9.014° E

METAR

ENSB 262150Z 22012KT 9999 FEW030 BKN080 M01/M05 Q1015 RMK WIND 1400FT 24016KT

Decode

TAF

TAF ENSB 261700Z 2618/2718 22008KT 9999 FEW012 BKN030 TEMPO 2618/2621 29015KT PROB30 2702/2706 BKN010

Decode

Destination Runways

ID Width Length Bearing (true) Bearing (mag) Surface Threshold Offset Overrun Length
10 148 ft / 45 m 7,578 ft / 2,310 m 105.32° 96.31° Asphalt 199 ft / 61 m 0 ft / 0 m
28 148 ft / 45 m 7,578 ft / 2,310 m 285.42° 276.41° Asphalt 395 ft / 120 m 0 ft / 0 m

Approach Navaids

Runway Type Ident Frequency Range Bearing (true) Bearing (mag) Slope Elevation
10 Localiser LB 110.30 MHz 18 nm / 33 km 105.42° 96.41° - 111 ft / 34 m (AMSL)
10 Glidescope LB 110.30 MHz 10 nm / 19 km 105.37° 96.35° 3.00° 88 ft / 27 m (AMSL)
28 Localiser LA 109.50 MHz 18 nm / 33 km 302.89° 293.88° - 153 ft / 47 m (AMSL)

Popular Alternatives